createdAt,value
2022-09-23T00:00:05.094Z,4.2
2022-09-23T00:05:05.088Z,4.3
2022-09-23T00:10:05.107Z,4.3
2022-09-23T00:15:05.098Z,4.4
2022-09-23T00:20:05.104Z,4.4
2022-09-23T00:25:05.101Z,4.1
2022-09-23T00:30:05.101Z,4.1
2022-09-23T00:35:05.107Z,4.8
2022-09-23T00:40:05.124Z,4.8
2022-09-23T00:45:05.093Z,4.7
2022-09-23T00:50:05.117Z,4.7
2022-09-23T00:55:05.106Z,4.8
2022-09-23T01:00:05.109Z,4.8
2022-09-23T01:05:05.100Z,4.8
2022-09-23T01:10:05.103Z,4.8
2022-09-23T01:15:05.105Z,4.8
2022-09-23T01:20:05.111Z,4.8
2022-09-23T01:25:05.098Z,5
2022-09-23T01:30:05.100Z,5
2022-09-23T01:35:05.101Z,5.7
2022-09-23T01:40:05.190Z,5.7
2022-09-23T01:45:05.094Z,4.8
2022-09-23T01:50:05.101Z,4.8
2022-09-23T01:55:05.098Z,5
2022-09-23T02:00:05.100Z,5
2022-09-23T02:05:05.096Z,6
2022-09-23T02:10:05.090Z,6
2022-09-23T02:15:05.106Z,5.1
2022-09-23T02:20:05.120Z,5.1
2022-09-23T02:25:05.103Z,5.5
2022-09-23T02:30:05.100Z,5.5
2022-09-23T02:35:05.104Z,5.6
2022-09-23T02:40:05.222Z,5.6
2022-09-23T02:45:05.095Z,5.3
2022-09-23T02:50:05.096Z,5.3
2022-09-23T02:55:05.093Z,5.6
2022-09-23T03:00:05.092Z,5.6
2022-09-23T03:05:05.092Z,5.9
2022-09-23T03:10:05.160Z,5.9
2022-09-23T03:15:05.099Z,6
2022-09-23T03:20:05.102Z,6
2022-09-23T03:25:05.097Z,6.5
2022-09-23T03:30:05.099Z,6.5
2022-09-23T03:35:05.096Z,5.8
2022-09-23T03:40:05.166Z,5.8
2022-09-23T03:45:05.094Z,6.3
2022-09-23T03:50:05.095Z,6.3
2022-09-23T03:55:05.089Z,6
2022-09-23T04:00:05.110Z,6
2022-09-23T04:05:05.100Z,6.4
2022-09-23T04:10:05.107Z,6.4
2022-09-23T04:15:05.098Z,6.4
2022-09-23T04:20:05.099Z,6.4
2022-09-23T04:25:05.102Z,6.1
2022-09-23T04:30:05.117Z,6.1
2022-09-23T04:35:05.108Z,5.5
2022-09-23T04:40:05.130Z,5.5
2022-09-23T04:45:05.125Z,6.8
2022-09-23T04:50:05.100Z,6.8
2022-09-23T04:55:07.981Z,6.4
2022-09-23T05:00:05.105Z,6.4
2022-09-23T05:05:05.105Z,6.4
2022-09-23T05:10:05.116Z,6.4
2022-09-23T05:15:05.102Z,6.9
2022-09-23T05:20:05.099Z,6.9
2022-09-23T05:25:05.092Z,5.3
2022-09-23T05:30:05.107Z,5.3
2022-09-23T05:35:05.106Z,5.9
2022-09-23T05:40:05.138Z,5.9
2022-09-23T05:45:05.093Z,5.4
2022-09-23T05:50:05.104Z,5.4
2022-09-23T05:55:05.088Z,5.7
2022-09-23T06:00:05.105Z,5.7
2022-09-23T06:05:05.094Z,5.4
2022-09-23T06:10:05.093Z,5.4
2022-09-23T06:15:05.091Z,5.3
2022-09-23T06:20:05.106Z,5.3
2022-09-23T06:25:05.091Z,4.5
2022-09-23T06:30:05.101Z,4.5
2022-09-23T06:35:05.109Z,4.7
2022-09-23T06:40:05.161Z,4.7
2022-09-23T06:45:05.102Z,4.5
2022-09-23T06:50:05.124Z,4.5
2022-09-23T06:55:05.114Z,5.1
2022-09-23T07:00:05.117Z,5.1
2022-09-23T07:05:05.110Z,4.7
2022-09-23T07:10:05.107Z,4.7
2022-09-23T07:15:05.097Z,4.8
2022-09-23T07:20:05.119Z,4.8
2022-09-23T07:25:05.107Z,5.1
2022-09-23T07:30:05.449Z,5.1
2022-09-23T07:35:05.103Z,5.1
2022-09-23T07:40:05.120Z,5.1
2022-09-23T07:45:05.094Z,5.3
2022-09-23T07:50:05.104Z,5.3
2022-09-23T07:55:05.134Z,5.2
2022-09-23T08:00:05.094Z,5.2
2022-09-23T08:05:05.090Z,5.6
2022-09-23T08:10:05.098Z,5.6
2022-09-23T08:15:05.136Z,5.5
2022-09-23T08:20:05.103Z,5.5
2022-09-23T08:25:07.705Z,6
2022-09-23T08:30:05.098Z,6
2022-09-23T08:35:05.092Z,6.3
2022-09-23T08:40:05.177Z,6.3
2022-09-23T08:45:05.085Z,6.3
2022-09-23T08:50:05.109Z,6.3
2022-09-23T08:55:05.089Z,6.2
2022-09-23T09:00:05.100Z,6.2
2022-09-23T09:05:05.096Z,6.6
2022-09-23T09:10:05.099Z,6.6
2022-09-23T09:15:05.088Z,6.7
2022-09-23T09:20:05.088Z,6.7
2022-09-23T09:25:05.103Z,6.8
2022-09-23T09:30:05.102Z,6.8
2022-09-23T09:35:05.106Z,6.5
2022-09-23T09:40:05.126Z,6.5
2022-09-23T09:45:05.092Z,5
2022-09-23T09:50:05.178Z,5
2022-09-23T09:55:05.038Z,6
2022-09-23T10:00:05.052Z,6
2022-09-23T10:05:05.036Z,5
2022-09-23T10:10:15.856Z,5
2022-09-23T10:15:05.037Z,5
2022-09-23T10:20:05.056Z,5
2022-09-23T10:25:05.040Z,5.2
2022-09-23T10:30:05.044Z,5.2
2022-09-23T10:35:05.037Z,4.6
2022-09-23T10:40:05.077Z,4.6
2022-09-23T10:45:05.037Z,4.7
2022-09-23T10:50:05.049Z,4.7
2022-09-23T10:55:05.036Z,5.3
2022-09-23T11:00:05.046Z,5.3
2022-09-23T11:05:05.081Z,5.1
2022-09-23T11:10:05.055Z,5.1
2022-09-23T11:15:05.045Z,5.2
2022-09-23T11:20:05.075Z,5.2
2022-09-23T11:25:05.050Z,4.7
2022-09-23T11:30:05.068Z,4.7
2022-09-23T11:35:05.070Z,4.8
2022-09-23T11:40:05.155Z,4.8
2022-09-23T11:45:05.062Z,4.6
2022-09-23T11:50:05.078Z,4.6
2022-09-23T11:55:12.123Z,3.7
2022-09-23T12:00:05.076Z,3.7
2022-09-23T12:05:05.191Z,3.9
2022-09-23T12:10:05.086Z,3.9
2022-09-23T12:15:05.068Z,4.6
2022-09-23T12:20:05.071Z,4.6
2022-09-23T12:25:05.076Z,4.7
2022-09-23T12:30:05.068Z,4.7
2022-09-23T12:35:05.067Z,5.1
2022-09-23T12:40:05.147Z,5.1
2022-09-23T12:45:05.070Z,4.5
2022-09-23T12:50:05.072Z,4.5
2022-09-23T12:55:05.080Z,4.5
2022-09-23T13:00:05.079Z,4.5
2022-09-23T13:05:05.065Z,4.1
2022-09-23T13:10:05.083Z,4.1
2022-09-23T13:15:05.069Z,4.4
2022-09-23T13:20:05.078Z,4.4
2022-09-23T13:25:05.083Z,4.2
2022-09-23T13:30:05.075Z,4.2
2022-09-23T13:35:05.071Z,4.4
2022-09-23T13:40:05.113Z,4.4
2022-09-23T13:45:05.084Z,4.5
2022-09-23T13:50:05.092Z,4.5
2022-09-23T13:55:05.074Z,4.4
2022-09-23T14:00:05.087Z,4.4
2022-09-23T14:05:05.080Z,3.6
2022-09-23T14:10:05.089Z,3.6
2022-09-23T14:15:05.081Z,3.4
2022-09-23T14:20:05.083Z,3.4
2022-09-23T14:25:05.076Z,3.6
2022-09-23T14:30:05.086Z,3.6
2022-09-23T14:35:05.100Z,3.8
2022-09-23T14:40:05.138Z,3.8
2022-09-23T14:45:05.079Z,3.5
2022-09-23T14:50:05.084Z,3.5
2022-09-23T14:55:05.085Z,3.5
2022-09-23T15:00:05.173Z,3.5
2022-09-23T15:05:05.086Z,3.4
2022-09-23T15:10:05.229Z,3.4
2022-09-23T15:15:05.090Z,3.2
2022-09-23T15:20:05.183Z,3.2
2022-09-23T15:25:05.108Z,3.1
2022-09-23T15:30:05.143Z,3.1
2022-09-23T15:35:05.101Z,3.4
2022-09-23T15:40:05.169Z,3.4
2022-09-23T15:45:05.084Z,3.1
2022-09-23T15:50:05.099Z,3.1
2022-09-23T15:55:05.089Z,3.5
2022-09-23T16:00:05.099Z,3.5
2022-09-23T16:05:05.090Z,4.1
2022-09-23T16:10:05.106Z,4.1
2022-09-23T16:15:05.109Z,3.8
2022-09-23T16:20:05.097Z,3.8
2022-09-23T16:25:05.091Z,2.8
2022-09-23T16:30:05.087Z,2.8
2022-09-23T16:35:05.091Z,2.5
2022-09-23T16:40:05.163Z,2.5
2022-09-23T16:45:05.089Z,2.5
2022-09-23T16:50:05.091Z,2.5
2022-09-23T16:55:05.093Z,2.7
2022-09-23T17:00:05.100Z,2.7
2022-09-23T17:05:05.104Z,2.7
2022-09-23T17:10:05.092Z,2.7
2022-09-23T17:15:05.087Z,3.1
2022-09-23T17:20:05.100Z,3.1
2022-09-23T17:25:05.107Z,2.5
2022-09-23T17:30:05.107Z,2.5
2022-09-23T17:35:05.099Z,2.9
2022-09-23T17:40:05.161Z,2.9
2022-09-23T17:45:05.101Z,2.9
2022-09-23T17:50:05.119Z,2.9
2022-09-23T17:55:05.093Z,3
2022-09-23T18:00:05.106Z,3
2022-09-23T18:05:05.093Z,3.2
2022-09-23T18:10:05.109Z,3.2
2022-09-23T18:15:05.103Z,3.2
2022-09-23T18:20:05.098Z,3.2
2022-09-23T18:25:17.612Z,2.9
2022-09-23T18:30:05.101Z,2.9
2022-09-23T18:35:05.097Z,3.4
2022-09-23T18:40:05.151Z,3.4
2022-09-23T18:45:05.090Z,3
2022-09-23T18:50:05.099Z,3
2022-09-23T18:55:05.108Z,3.6
2022-09-23T19:00:05.101Z,3.6
2022-09-23T19:05:05.096Z,3.2
2022-09-23T19:10:05.105Z,3.2
2022-09-23T19:15:05.094Z,3.2
2022-09-23T19:20:05.108Z,3.2
2022-09-23T19:25:05.104Z,3.1
2022-09-23T19:30:05.117Z,3.1
2022-09-23T19:35:05.095Z,3.1
2022-09-23T19:40:05.126Z,3.1
2022-09-23T19:45:05.098Z,2.9
2022-09-23T19:50:05.105Z,2.9
2022-09-23T20:00:05.083Z,3.2
2022-09-23T20:05:05.091Z,2.8
2022-09-23T20:10:05.092Z,2.8
2022-09-23T20:15:05.084Z,2.9
2022-09-23T20:20:05.088Z,2.9
2022-09-23T20:25:05.092Z,3.1
2022-09-23T20:30:05.100Z,3.1
2022-09-23T20:35:05.083Z,3.2
2022-09-23T20:40:05.161Z,3.2
2022-09-23T20:45:05.083Z,3.1
2022-09-23T20:50:05.095Z,3.1
2022-09-23T20:55:05.092Z,3.4
2022-09-23T21:00:05.091Z,3.4
2022-09-23T21:05:05.086Z,3.5
2022-09-23T21:10:05.097Z,3.5
2022-09-23T21:15:05.084Z,3.3
2022-09-23T21:20:05.090Z,3.3
2022-09-23T21:30:05.088Z,3.2
2022-09-23T21:35:05.094Z,3.1
2022-09-23T21:40:05.178Z,3.1
2022-09-23T21:45:05.114Z,3.6
2022-09-23T21:50:05.094Z,3.6
2022-09-23T21:55:05.093Z,3.8
2022-09-23T22:00:05.097Z,3.8
2022-09-23T22:05:05.093Z,3.7
2022-09-23T22:10:05.092Z,3.7
2022-09-23T22:15:05.088Z,3.4
2022-09-23T22:20:05.095Z,3.4
2022-09-23T22:25:05.090Z,3.6
2022-09-23T22:30:05.095Z,3.6
2022-09-23T22:35:05.089Z,3.8
2022-09-23T22:40:05.193Z,3.8
2022-09-23T22:45:05.146Z,3.8
2022-09-23T22:50:05.088Z,3.8
2022-09-23T22:55:05.089Z,3.8
2022-09-23T23:00:05.097Z,3.8
2022-09-23T23:05:05.083Z,3.7
2022-09-23T23:10:05.089Z,3.7
2022-09-23T23:15:05.084Z,3.9
2022-09-23T23:20:05.088Z,3.9
2022-09-23T23:25:05.083Z,3.9
2022-09-23T23:30:05.095Z,3.9
2022-09-23T23:35:05.091Z,4
2022-09-23T23:40:05.207Z,4
2022-09-23T23:45:05.086Z,4.4
2022-09-23T23:50:05.097Z,4.4
2022-09-23T23:55:05.086Z,4.2
